createdAt,value
2022-10-25T00:02:23.429Z,16.03
2022-10-25T00:04:49.991Z,15.90
2022-10-25T00:07:16.391Z,15.88
2022-10-25T00:09:42.777Z,15.83
2022-10-25T00:12:09.241Z,15.91
2022-10-25T00:14:35.678Z,15.85
2022-10-25T00:17:02.313Z,15.91
2022-10-25T00:19:28.726Z,15.91
2022-10-25T00:21:55.119Z,15.92
2022-10-25T00:24:21.506Z,15.83
2022-10-25T00:26:47.873Z,15.86
2022-10-25T00:29:14.408Z,15.93
2022-10-25T00:31:40.878Z,15.83
2022-10-25T00:34:07.264Z,15.85
2022-10-25T00:36:33.676Z,15.79
2022-10-25T00:39:00.125Z,15.74
2022-10-25T00:41:34.819Z,15.76
2022-10-25T00:44:35.522Z,15.65
2022-10-25T00:47:15.938Z,15.67
2022-10-25T00:49:44.265Z,15.62
2022-10-25T00:52:11.100Z,15.63
2022-10-25T00:54:42.586Z,15.52
2022-10-25T00:57:15.666Z,15.63
2022-10-25T00:59:43.359Z,15.69
2022-10-25T01:02:10.137Z,15.61
2022-10-25T01:04:37.146Z,15.68
2022-10-25T01:07:03.787Z,15.66
2022-10-25T01:09:32.779Z,15.66
2022-10-25T01:11:59.188Z,15.63
2022-10-25T01:14:26.891Z,15.69
2022-10-25T01:17:18.149Z,15.74
2022-10-25T01:20:19.707Z,15.73
2022-10-25T01:23:19.380Z,15.76
2022-10-25T01:26:17.219Z,15.79
2022-10-25T01:29:09.692Z,15.76
2022-10-25T01:31:50.670Z,15.84
2022-10-25T01:34:33.015Z,15.76
2022-10-25T01:37:11.627Z,15.79
2022-10-25T01:39:48.365Z,15.84
2022-10-25T01:42:23.875Z,15.85
2022-10-25T01:45:06.925Z,15.84
2022-10-25T01:47:39.787Z,15.82
2022-10-25T01:50:11.025Z,15.76
2022-10-25T01:52:37.567Z,15.90
2022-10-25T01:55:08.753Z,15.84
2022-10-25T01:57:47.460Z,15.84
2022-10-25T02:00:17.924Z,15.89
2022-10-25T02:03:10.089Z,15.84
2022-10-25T02:06:05.037Z,15.87
2022-10-25T02:08:37.030Z,15.87
2022-10-25T02:11:25.879Z,15.94
2022-10-25T02:14:07.412Z,15.83
2022-10-25T02:16:44.374Z,15.90
2022-10-25T02:19:16.232Z,15.93
2022-10-25T02:21:46.515Z,15.82
2022-10-25T02:24:17.446Z,15.83
2022-10-25T02:26:44.962Z,15.80
2022-10-25T02:29:12.878Z,15.80
2022-10-25T02:31:39.818Z,15.74
2022-10-25T02:34:06.351Z,15.83
2022-10-25T02:36:32.731Z,15.80
2022-10-25T02:38:59.923Z,15.67
2022-10-25T02:41:26.739Z,15.73
2022-10-25T02:43:53.141Z,15.72
2022-10-25T02:46:22.164Z,15.82
2022-10-25T02:48:49.532Z,15.73
2022-10-25T02:51:16.519Z,15.79
2022-10-25T02:53:43.181Z,15.74
2022-10-25T02:56:19.263Z,15.71
2022-10-25T02:58:47.122Z,15.78
2022-10-25T03:01:15.046Z,15.76
2022-10-25T03:03:42.027Z,15.81
2022-10-25T03:06:10.093Z,15.81
2022-10-25T03:08:37.379Z,15.83
2022-10-25T03:11:05.394Z,15.81
2022-10-25T03:13:32.178Z,15.74
2022-10-25T03:15:58.616Z,15.70
2022-10-25T03:18:25.081Z,15.81
2022-10-25T03:20:51.933Z,15.75
2022-10-25T03:23:18.566Z,15.81
2022-10-25T03:25:44.950Z,15.80
2022-10-25T03:28:11.347Z,15.78
2022-10-25T03:30:37.783Z,15.82
2022-10-25T03:33:04.360Z,15.75
2022-10-25T03:35:30.771Z,15.74
2022-10-25T03:37:57.167Z,15.57
2022-10-25T03:40:23.732Z,15.64
2022-10-25T03:42:50.123Z,15.66
2022-10-25T03:45:16.751Z,15.68
2022-10-25T03:47:43.324Z,15.67
2022-10-25T03:50:09.772Z,15.68
2022-10-25T03:52:36.488Z,15.65
2022-10-25T03:55:03.359Z,15.57
2022-10-25T03:57:29.998Z,15.54
2022-10-25T03:59:57.769Z,15.56
2022-10-25T04:02:24.193Z,15.63
2022-10-25T04:04:50.576Z,15.54
2022-10-25T04:07:17.059Z,15.53
2022-10-25T04:09:43.461Z,15.63
2022-10-25T04:12:09.850Z,15.60
2022-10-25T04:14:36.247Z,15.64
2022-10-25T04:17:02.625Z,15.57
2022-10-25T04:19:28.999Z,15.58
2022-10-25T04:21:55.490Z,15.59
2022-10-25T04:24:22.758Z,15.58
2022-10-25T04:26:49.331Z,15.63
2022-10-25T04:29:18.427Z,15.59
2022-10-25T04:31:44.832Z,15.60
2022-10-25T04:34:11.260Z,15.55
2022-10-25T04:36:39.041Z,15.59
2022-10-25T04:39:05.627Z,15.53
2022-10-25T04:41:32.024Z,15.54
2022-10-25T04:43:58.450Z,15.51
2022-10-25T04:46:24.920Z,15.55
2022-10-25T04:48:51.343Z,15.45
2022-10-25T04:51:17.817Z,15.45
2022-10-25T04:53:44.227Z,15.39
2022-10-25T04:56:17.480Z,15.26
2022-10-25T04:58:43.898Z,15.29
2022-10-25T05:01:13.210Z,15.27
2022-10-25T05:03:40.609Z,15.27
2022-10-25T05:06:14.304Z,15.29
2022-10-25T05:08:43.031Z,15.27
2022-10-25T05:11:11.339Z,15.20
2022-10-25T05:13:39.540Z,15.20
2022-10-25T05:16:06.715Z,15.20
2022-10-25T05:18:34.573Z,14.97
2022-10-25T05:21:06.439Z,14.94
2022-10-25T05:23:34.655Z,14.91
2022-10-25T05:26:09.417Z,15.05
2022-10-25T05:28:37.381Z,15.00
2022-10-25T05:31:06.178Z,15.04
2022-10-25T05:34:28.070Z,14.90
2022-10-25T05:36:58.222Z,14.97
2022-10-25T05:39:25.013Z,14.96
2022-10-25T05:41:52.198Z,14.92
2022-10-25T05:44:18.924Z,14.92
2022-10-25T05:46:49.046Z,14.90
2022-10-25T05:49:15.429Z,14.82
2022-10-25T05:51:41.802Z,14.86
2022-10-25T05:54:13.123Z,14.80
2022-10-25T05:56:40.384Z,14.76
2022-10-25T05:59:11.845Z,14.85
2022-10-25T06:01:41.080Z,14.86
2022-10-25T06:04:08.111Z,14.88
2022-10-25T06:06:35.923Z,14.91
2022-10-25T06:09:02.765Z,14.87
2022-10-25T06:11:29.817Z,14.91
2022-10-25T06:13:56.297Z,14.91
2022-10-25T06:16:23.400Z,14.88
2022-10-25T06:18:50.270Z,14.92
2022-10-25T06:21:24.990Z,14.85
2022-10-25T06:23:52.310Z,14.91
2022-10-25T06:26:27.424Z,14.94
2022-10-25T06:28:56.348Z,15.00
2022-10-25T06:31:23.695Z,14.93
2022-10-25T06:33:50.660Z,15.04
2022-10-25T06:36:22.241Z,15.01
2022-10-25T06:38:49.223Z,15.06
2022-10-25T06:41:21.017Z,15.08
2022-10-25T06:43:48.421Z,15.22
2022-10-25T06:46:22.656Z,15.19
2022-10-25T06:48:49.908Z,15.25
2022-10-25T06:51:16.448Z,15.27
2022-10-25T06:53:42.911Z,15.26
2022-10-25T06:56:14.460Z,15.13
2022-10-25T06:58:41.659Z,15.09
2022-10-25T07:01:11.918Z,15.13
2022-10-25T07:03:39.033Z,15.13
2022-10-25T07:06:21.359Z,15.12
2022-10-25T07:08:55.193Z,15.16
2022-10-25T07:11:23.042Z,15.03
2022-10-25T07:13:49.471Z,15.19
2022-10-25T07:20:34.997Z,15.10
2022-10-25T07:23:02.541Z,15.04
2022-10-25T07:25:31.137Z,15.10
2022-10-25T07:27:57.662Z,15.16
2022-10-25T07:30:24.101Z,15.18
2022-10-25T07:32:50.550Z,15.18
2022-10-25T07:35:16.960Z,15.36
2022-10-25T07:37:43.346Z,15.34
2022-10-25T07:40:10.280Z,15.34
2022-10-25T07:42:36.706Z,15.35
2022-10-25T07:45:03.445Z,15.34
2022-10-25T07:47:29.830Z,15.38
2022-10-25T07:49:57.653Z,15.35
2022-10-25T07:52:24.047Z,15.45
2022-10-25T07:54:50.549Z,15.33
2022-10-25T07:57:17.244Z,15.39
2022-10-25T07:59:43.644Z,15.42
2022-10-25T08:02:14.431Z,15.33
2022-10-25T08:04:40.823Z,15.29
2022-10-25T08:07:07.245Z,15.24
2022-10-25T08:09:38.028Z,15.27
2022-10-25T08:12:04.921Z,15.33
2022-10-25T08:14:32.971Z,15.32
2022-10-25T08:17:01.551Z,15.26
2022-10-25T08:19:27.957Z,15.22
2022-10-25T08:21:54.416Z,15.25
2022-10-25T08:26:52.238Z,15.30
2022-10-25T08:29:18.610Z,15.30
2022-10-25T08:31:45.033Z,15.23
2022-10-25T08:36:42.869Z,15.43
2022-10-25T08:39:09.297Z,15.33
2022-10-25T08:41:50.887Z,15.29
2022-10-25T08:44:54.875Z,15.30
2022-10-25T08:47:29.542Z,15.35
2022-10-25T08:50:04.870Z,15.35
2022-10-25T08:52:38.039Z,15.44
2022-10-25T08:55:09.873Z,15.39
2022-10-25T08:57:41.274Z,15.33
2022-10-25T09:00:19.466Z,15.54
2022-10-25T09:02:51.570Z,15.51
2022-10-25T09:05:47.498Z,15.67
2022-10-25T09:08:30.850Z,15.73
2022-10-25T09:11:00.155Z,15.69
2022-10-25T09:14:12.049Z,15.64
2022-10-25T09:16:52.986Z,15.84
2022-10-25T09:19:39.428Z,15.86
2022-10-25T09:22:14.579Z,15.96
2022-10-25T09:24:57.665Z,16.04
2022-10-25T09:27:35.163Z,16.17
2022-10-25T09:30:08.960Z,16.16
2022-10-25T09:33:01.203Z,16.19
2022-10-25T09:35:42.222Z,16.40
2022-10-25T09:38:12.954Z,16.29
2022-10-25T09:40:56.677Z,16.39
2022-10-25T09:43:31.799Z,16.35
2022-10-25T09:46:19.550Z,16.34
2022-10-25T09:48:55.877Z,16.40
2022-10-25T09:51:29.712Z,16.35
2022-10-25T09:53:57.236Z,16.46
2022-10-25T09:56:23.716Z,16.50
2022-10-25T09:58:50.105Z,16.52
2022-10-25T10:01:26.504Z,16.54
2022-10-25T10:03:55.786Z,16.70
2022-10-25T10:06:37.790Z,16.65
2022-10-25T10:09:06.941Z,16.61
2022-10-25T10:11:35.756Z,16.50
2022-10-25T10:14:25.899Z,16.61
2022-10-25T10:16:58.025Z,16.65
2022-10-25T10:19:26.827Z,16.69
2022-10-25T10:25:45.400Z,16.70
2022-10-25T10:28:14.790Z,16.85
2022-10-25T10:30:41.747Z,16.96
2022-10-25T10:33:17.294Z,16.85
2022-10-25T10:35:43.891Z,16.80
2022-10-25T10:38:29.064Z,16.67
2022-10-25T10:41:30.638Z,16.77
2022-10-25T10:44:11.497Z,16.89
2022-10-25T10:46:44.265Z,16.95
2022-10-25T10:49:10.838Z,17.07
2022-10-25T10:51:44.780Z,17.24
2022-10-25T10:54:24.484Z,17.27
2022-10-25T10:56:56.050Z,17.23
2022-10-25T10:59:34.098Z,17.35
2022-10-25T11:02:23.555Z,17.51
2022-10-25T11:04:52.480Z,17.60
2022-10-25T11:07:32.023Z,17.72
2022-10-25T11:10:16.794Z,17.67
2022-10-25T11:12:44.159Z,17.58
2022-10-25T11:15:14.713Z,17.68
2022-10-25T11:17:53.775Z,17.77
2022-10-25T11:20:30.155Z,17.73
2022-10-25T11:23:27.526Z,17.68
2022-10-25T11:26:05.614Z,17.72
2022-10-25T11:28:51.910Z,17.87
2022-10-25T11:31:48.834Z,17.85
2022-10-25T11:34:37.967Z,17.80
2022-10-25T11:37:21.365Z,17.82
2022-10-25T11:40:18.776Z,17.96
2022-10-25T11:42:57.082Z,17.94
2022-10-25T11:45:41.259Z,17.99
2022-10-25T11:48:26.127Z,18.02
2022-10-25T11:51:13.712Z,17.90
2022-10-25T11:53:54.021Z,17.82
2022-10-25T11:56:41.966Z,18.03
2022-10-25T11:59:36.338Z,18.19
2022-10-25T12:02:27.753Z,18.05
2022-10-25T12:05:13.546Z,18.06
2022-10-25T12:08:16.764Z,18.01
2022-10-25T12:10:49.465Z,17.78
2022-10-25T12:13:21.923Z,17.87
2022-10-25T12:15:51.056Z,17.87
2022-10-25T12:18:26.671Z,17.60
2022-10-25T12:20:54.139Z,17.72
2022-10-25T12:23:23.836Z,17.74
2022-10-25T12:25:54.609Z,17.59
2022-10-25T12:28:42.389Z,17.40
2022-10-25T12:31:21.713Z,17.31
2022-10-25T12:34:01.572Z,17.38
2022-10-25T12:36:35.013Z,17.23
2022-10-25T12:39:06.366Z,17.28
2022-10-25T12:41:36.268Z,17.25
2022-10-25T12:44:22.062Z,17.25
2022-10-25T12:47:09.107Z,17.28
2022-10-25T12:50:02.032Z,17.51
2022-10-25T12:52:36.625Z,17.43
2022-10-25T12:55:14.510Z,17.41
2022-10-25T12:58:09.012Z,17.52
2022-10-25T13:00:43.631Z,17.53
2022-10-25T13:03:37.755Z,17.60
2022-10-25T13:06:21.958Z,17.42
2022-10-25T13:08:49.100Z,17.54
2022-10-25T13:11:15.598Z,17.58
2022-10-25T13:13:51.043Z,17.52
2022-10-25T13:16:43.621Z,17.49
2022-10-25T13:19:35.865Z,17.21
2022-10-25T13:22:28.182Z,17.06
2022-10-25T13:24:57.360Z,17.03
2022-10-25T13:27:32.233Z,16.87
2022-10-25T13:30:22.012Z,16.93
2022-10-25T13:33:33.899Z,16.86
2022-10-25T13:36:02.930Z,16.73
2022-10-25T13:38:36.567Z,16.62
2022-10-25T13:41:10.430Z,16.63
2022-10-25T13:43:58.467Z,16.72
2022-10-25T13:46:34.744Z,16.72
2022-10-25T13:49:04.764Z,16.59
2022-10-25T13:51:32.618Z,16.54
2022-10-25T13:54:06.052Z,16.73
2022-10-25T13:56:36.740Z,16.73
2022-10-25T13:59:03.956Z,16.73
2022-10-25T14:01:31.420Z,16.65
2022-10-25T14:04:20.859Z,16.73
2022-10-25T14:06:47.323Z,16.68
2022-10-25T14:09:36.297Z,16.69
2022-10-25T14:12:02.961Z,16.60
2022-10-25T14:14:53.146Z,16.56
2022-10-25T14:17:35.973Z,16.43
2022-10-25T14:20:24.341Z,16.54
2022-10-25T14:22:54.135Z,16.63
2022-10-25T14:25:35.750Z,16.71
2022-10-25T14:28:22.426Z,16.72
2022-10-25T14:30:51.881Z,16.73
2022-10-25T14:33:24.226Z,16.65
2022-10-25T14:36:06.705Z,16.66
2022-10-25T14:38:38.392Z,16.68
2022-10-25T14:41:11.792Z,16.72
2022-10-25T14:43:39.286Z,16.74
2022-10-25T14:46:05.610Z,16.67
2022-10-25T14:48:33.528Z,16.66
2022-10-25T14:51:05.393Z,16.70
2022-10-25T14:53:32.098Z,16.58
2022-10-25T14:56:01.524Z,16.56
2022-10-25T14:58:33.494Z,16.54
2022-10-25T15:01:02.584Z,16.58
2022-10-25T15:03:30.406Z,16.53
2022-10-25T15:05:59.370Z,16.56
2022-10-25T15:08:28.231Z,16.48
2022-10-25T15:11:00.778Z,16.42
2022-10-25T15:13:39.640Z,16.53
2022-10-25T15:16:27.907Z,16.54
2022-10-25T15:19:18.390Z,16.44
2022-10-25T15:21:48.775Z,16.41
2022-10-25T15:24:21.149Z,16.42
2022-10-25T15:27:01.900Z,16.50
2022-10-25T15:29:41.043Z,16.35
2022-10-25T15:32:22.351Z,16.34
2022-10-25T15:34:54.169Z,16.29
2022-10-25T15:37:22.074Z,16.26
2022-10-25T15:39:50.957Z,16.19
2022-10-25T15:42:18.207Z,16.12
2022-10-25T15:44:44.594Z,16.10
2022-10-25T15:47:23.582Z,16.05
2022-10-25T15:49:52.379Z,15.99
2022-10-25T15:52:19.282Z,15.98
2022-10-25T15:54:45.679Z,15.89
2022-10-25T15:57:12.071Z,15.91
2022-10-25T15:59:38.468Z,15.84
2022-10-25T16:02:16.051Z,15.82
2022-10-25T16:04:42.494Z,15.76
2022-10-25T16:07:11.612Z,15.73
2022-10-25T16:09:38.025Z,15.72
2022-10-25T16:12:06.565Z,15.67
2022-10-25T16:14:34.204Z,15.55
2022-10-25T16:17:00.598Z,15.53
2022-10-25T16:19:31.248Z,15.46
2022-10-25T16:21:58.999Z,15.46
2022-10-25T16:24:25.427Z,15.39
2022-10-25T16:26:52.661Z,15.38
2022-10-25T16:29:24.582Z,15.35
2022-10-25T16:31:52.343Z,15.29
2022-10-25T16:34:19.653Z,15.29
2022-10-25T16:36:47.584Z,15.13
2022-10-25T16:39:14.046Z,15.06
2022-10-25T16:41:43.260Z,15.11
2022-10-25T16:44:12.032Z,15.04
2022-10-25T16:46:38.918Z,15.06
2022-10-25T16:49:05.348Z,14.95
2022-10-25T16:51:34.630Z,14.94
2022-10-25T16:54:01.899Z,14.91
2022-10-25T16:56:28.370Z,14.83
2022-10-25T16:58:54.770Z,14.79
2022-10-25T17:01:32.275Z,14.70
2022-10-25T17:03:59.593Z,14.60
2022-10-25T17:06:40.718Z,14.58
2022-10-25T17:09:07.508Z,14.61
2022-10-25T17:11:33.917Z,14.64
2022-10-25T17:14:00.313Z,14.55
2022-10-25T17:16:26.772Z,14.47
2022-10-25T17:18:53.164Z,14.59
2022-10-25T17:21:19.670Z,14.52
2022-10-25T17:23:46.099Z,14.40
2022-10-25T17:26:12.550Z,14.44
2022-10-25T17:28:43.115Z,14.44
2022-10-25T17:31:12.799Z,14.30
2022-10-25T17:33:39.321Z,14.33
2022-10-25T17:36:17.307Z,14.27
2022-10-25T17:38:44.598Z,14.33
2022-10-25T17:41:11.652Z,14.38
2022-10-25T17:43:39.865Z,14.29
2022-10-25T17:46:08.327Z,14.30
2022-10-25T17:48:35.096Z,14.10
2022-10-25T17:51:03.759Z,14.12
2022-10-25T17:53:30.236Z,13.98
2022-10-25T17:55:57.158Z,13.90
2022-10-25T17:58:23.548Z,13.93
2022-10-25T18:00:50.112Z,13.93
2022-10-25T18:03:16.567Z,13.95
2022-10-25T18:05:42.996Z,13.92
2022-10-25T18:08:09.400Z,13.85
2022-10-25T18:10:36.034Z,13.82
2022-10-25T18:13:02.456Z,13.77
2022-10-25T18:15:29.252Z,13.81
2022-10-25T18:17:55.689Z,13.74
2022-10-25T18:20:25.139Z,13.77
2022-10-25T18:22:52.982Z,13.78
2022-10-25T18:25:19.811Z,13.76
2022-10-25T18:27:46.538Z,13.68
2022-10-25T18:30:13.262Z,13.58
2022-10-25T18:32:39.687Z,13.64
2022-10-25T18:35:06.379Z,13.60
2022-10-25T18:37:32.767Z,13.54
2022-10-25T18:39:59.156Z,13.59
2022-10-25T18:42:25.563Z,13.41
2022-10-25T18:44:52.917Z,13.26
2022-10-25T18:47:19.316Z,13.25
2022-10-25T18:49:45.834Z,13.18
2022-10-25T18:52:12.296Z,13.13
2022-10-25T18:54:38.707Z,13.17
2022-10-25T18:57:05.223Z,13.20
2022-10-25T18:59:31.604Z,13.16
2022-10-25T19:01:58.122Z,13.25
2022-10-25T19:04:24.633Z,13.23
2022-10-25T19:06:51.099Z,13.32
2022-10-25T19:09:17.807Z,13.42
2022-10-25T19:11:44.196Z,13.52
2022-10-25T19:14:10.591Z,13.47
2022-10-25T19:16:40.560Z,13.50
2022-10-25T19:19:07.337Z,13.48
2022-10-25T19:21:34.648Z,13.51
2022-10-25T19:24:01.078Z,13.46
2022-10-25T19:26:27.480Z,13.47
2022-10-25T19:28:59.015Z,13.48
2022-10-25T19:31:27.345Z,13.31
2022-10-25T19:33:56.139Z,13.20
2022-10-25T19:36:22.552Z,13.10
2022-10-25T19:38:49.092Z,12.99
2022-10-25T19:41:22.827Z,12.89
2022-10-25T19:43:49.934Z,12.77
2022-10-25T19:46:16.659Z,12.84
2022-10-25T19:48:43.341Z,12.87
2022-10-25T19:51:18.606Z,12.81
2022-10-25T19:53:45.816Z,12.62
2022-10-25T19:56:15.389Z,12.70
2022-10-25T19:58:41.930Z,12.81
2022-10-25T20:01:17.497Z,12.84
2022-10-25T20:03:49.211Z,12.84
2022-10-25T20:06:21.619Z,12.83
2022-10-25T20:08:51.175Z,12.75
2022-10-25T20:11:18.217Z,12.65
2022-10-25T20:13:44.618Z,12.66
2022-10-25T20:16:12.403Z,12.61
2022-10-25T20:18:39.990Z,12.65
2022-10-25T20:21:10.462Z,12.69
2022-10-25T20:23:37.790Z,12.57
2022-10-25T20:26:12.492Z,12.51
2022-10-25T20:28:38.898Z,12.43
2022-10-25T20:31:06.048Z,12.42
2022-10-25T20:33:32.499Z,12.36
2022-10-25T20:36:03.999Z,12.38
2022-10-25T20:38:31.325Z,12.30
2022-10-25T20:41:10.159Z,12.26
2022-10-25T20:43:37.389Z,12.18
2022-10-25T20:46:04.720Z,12.13
2022-10-25T20:48:31.195Z,12.26
2022-10-25T20:50:57.591Z,12.31
2022-10-25T20:53:23.974Z,12.08
2022-10-25T20:55:50.403Z,11.93
2022-10-25T20:58:19.089Z,11.86
2022-10-25T21:00:46.935Z,11.94
2022-10-25T21:03:14.603Z,11.82
2022-10-25T21:05:45.136Z,11.88
2022-10-25T21:08:15.391Z,11.85
2022-10-25T21:10:42.990Z,11.79
2022-10-25T21:13:10.554Z,11.65
2022-10-25T21:15:37.006Z,11.70
2022-10-25T21:18:03.674Z,11.69
2022-10-25T21:20:30.684Z,11.86
2022-10-25T21:22:57.094Z,11.86
2022-10-25T21:25:23.645Z,11.75
2022-10-25T21:27:53.658Z,11.61
2022-10-25T21:30:20.161Z,11.62
2022-10-25T21:32:46.566Z,11.45
2022-10-25T21:35:13.023Z,11.42
2022-10-25T21:37:39.423Z,11.43
2022-10-25T21:40:06.539Z,11.45
2022-10-25T21:42:33.514Z,11.38
2022-10-25T21:44:59.942Z,11.45
2022-10-25T21:47:26.616Z,11.40
2022-10-25T21:49:53.211Z,11.44
2022-10-25T21:52:19.614Z,11.34
2022-10-25T21:54:45.982Z,11.41
2022-10-25T21:57:12.362Z,11.46
2022-10-25T21:59:38.757Z,11.44
2022-10-25T22:02:05.283Z,11.26
2022-10-25T22:04:31.803Z,11.15
2022-10-25T22:06:58.381Z,11.09
2022-10-25T22:09:24.756Z,11.07
2022-10-25T22:11:51.866Z,11.01
2022-10-25T22:14:19.210Z,11.03
2022-10-25T22:16:45.603Z,11.19
2022-10-25T22:19:17.407Z,11.17
2022-10-25T22:21:45.113Z,11.15
2022-10-25T22:24:12.709Z,11.11
2022-10-25T22:26:41.847Z,11.02
2022-10-25T22:29:10.772Z,10.88
2022-10-25T22:31:38.034Z,10.86
2022-10-25T22:34:06.694Z,10.79
2022-10-25T22:36:35.564Z,10.75
2022-10-25T22:39:02.567Z,10.76
2022-10-25T22:41:29.926Z,10.77
2022-10-25T22:43:57.175Z,10.68
2022-10-25T22:46:29.285Z,10.66
2022-10-25T22:48:57.868Z,10.68
2022-10-25T22:51:26.006Z,10.71
2022-10-25T22:53:52.447Z,10.72
2022-10-25T22:56:21.114Z,10.74
2022-10-25T22:58:50.571Z,10.68
2022-10-25T23:01:19.919Z,10.73
2022-10-25T23:03:54.539Z,10.72
2022-10-25T23:06:26.114Z,10.67
2022-10-25T23:08:58.326Z,10.64
2022-10-25T23:11:27.172Z,10.51
2022-10-25T23:13:53.634Z,10.42
2022-10-25T23:16:20.469Z,10.32
2022-10-25T23:18:46.850Z,10.34
2022-10-25T23:21:24.179Z,10.29
2022-10-25T23:23:51.970Z,10.27
2022-10-25T23:26:22.680Z,10.38
2022-10-25T23:28:49.679Z,10.46
2022-10-25T23:31:16.427Z,10.47
2022-10-25T23:33:43.087Z,10.49
2022-10-25T23:36:15.427Z,10.38
2022-10-25T23:38:43.315Z,10.24
2022-10-25T23:41:09.750Z,10.20
2022-10-25T23:43:36.344Z,10.14
2022-10-25T23:46:03.388Z,10.00
2022-10-25T23:48:30.905Z,9.93
2022-10-25T23:53:31.555Z,10.08
2022-10-25T23:55:58.278Z,10.12
2022-10-25T23:58:24.695Z,10.14
